F/V Cote D'ambre — FPEY — position and weather

sailwx.info

Track history (hours):
 
Tides and Currents Weather Stations Pressure Air Temp Water Temp Dewpoint Dewpoint Depression Visibility Wind Speed Wind Dir Waves Ship Positions

F/V Cote D'ambre

Last reported at 2014-Oct-25 02:29 UTC. Time now 2014-Oct-25 08:54 UTC.
Position N 47°44' W 003°22'.

Length 16 m; draft 4 m.

Type: Fishing. MMSI: 227128800.

Date/timePositionNaut miles runAvg speedWind from/ knotsBaromVisibWave heightAir tempDewpointWater temp
2014-Oct-25 02:29N 47°44' W 003°22'0 0.1
2014-Oct-25 01:33N 47°44' W 003°22'0 0.0
2014-Oct-25 00:33N 47°44' W 003°22'1 1.0
2014-Oct-24 23:33N 47°43' W 003°22'9 8.6
2014-Oct-24 22:33N 47°34' W 003°23'3 0.1
2014-Oct-24 01:33N 47°37' W 003°22'7 6.8
2014-Oct-24 00:31N 47°44' W 003°22'0 0.0
2014-Oct-23 23:31N 47°44' W 003°22'0 0.1
2014-Oct-23 22:33N 47°44' W 003°22'6 0.3
2014-Oct-23 03:33N 47°37' W 003°22'6 6.3
2014-Oct-23 02:32N 47°44' W 003°22'0 0.0
2014-Oct-23 01:32N 47°44' W 003°22'7 6.9
2014-Oct-23 00:33N 47°37' W 003°23'4 0.2
2014-Oct-22 04:08N 47°33' W 003°23'5 8.5
2014-Oct-22 03:33N 47°38' W 003°22'6 6.0
2014-Oct-22 02:33N 47°44' W 003°22'0 0.1
2014-Oct-22 01:33N 47°44' W 003°22'8 8.1
2014-Oct-22 00:33N 47°36' W 003°23'3 0.2
2014-Oct-21 04:34N 47°32' W 003°22'8 8.1
2014-Oct-21 03:34N 47°40' W 003°22'  
2014-Oct-18 01:33N 47°44' W 003°22'0 0.2
2014-Oct-18 00:32N 47°44' W 003°22'0 0.0
2014-Oct-17 23:32N 47°44' W 003°22'6 5.9
2014-Oct-17 22:33N 47°38' W 003°22'7 0.2
2014-Oct-16 04:08N 47°32' W 003°23'5 7.9
2014-Oct-16 03:33N 47°36' W 003°22'8 7.4
2014-Oct-16 02:31N 47°44' W 003°22'0 0.0
2014-Oct-16 01:31N 47°44' W 003°22'5 5.0
2014-Oct-16 00:33N 47°39' W 003°22'  
Track history (hours):
 
Tides and Currents Weather Stations Pressure Air Temp Water Temp Dewpoint Dewpoint Depression Visibility Wind Speed Wind Dir Waves Ship Positions

F/V Cote D'ambre

Last reported at 2014-Oct-25 02:29 UTC. Time now 2014-Oct-25 08:54 UTC.
Position N 47°44' W 003°22'.

Length 16 m; draft 4 m.

Type: Fishing. MMSI: 227128800.

Date/timePositionNaut miles runAvg speedWind from/ knotsBaromVisibWave heightAir tempDewpointWater temp
2014-Oct-25 02:29N 47°44' W 003°22'0 0.1
2014-Oct-25 01:33N 47°44' W 003°22'0 0.0
2014-Oct-25 00:33N 47°44' W 003°22'1 1.0
2014-Oct-24 23:33N 47°43' W 003°22'9 8.6
2014-Oct-24 22:33N 47°34' W 003°23'3 0.1
2014-Oct-24 01:33N 47°37' W 003°22'7 6.8
2014-Oct-24 00:31N 47°44' W 003°22'0 0.0
2014-Oct-23 23:31N 47°44' W 003°22'0 0.1
2014-Oct-23 22:33N 47°44' W 003°22'6 0.3
2014-Oct-23 03:33N 47°37' W 003°22'6 6.3
2014-Oct-23 02:32N 47°44' W 003°22'0 0.0
2014-Oct-23 01:32N 47°44' W 003°22'7 6.9
2014-Oct-23 00:33N 47°37' W 003°23'4 0.2
2014-Oct-22 04:08N 47°33' W 003°23'5 8.5
2014-Oct-22 03:33N 47°38' W 003°22'6 6.0
2014-Oct-22 02:33N 47°44' W 003°22'0 0.1
2014-Oct-22 01:33N 47°44' W 003°22'8 8.1
2014-Oct-22 00:33N 47°36' W 003°23'3 0.2
2014-Oct-21 04:34N 47°32' W 003°22'8 8.1
2014-Oct-21 03:34N 47°40' W 003°22'  
2014-Oct-18 01:33N 47°44' W 003°22'0 0.2
2014-Oct-18 00:32N 47°44' W 003°22'0 0.0
2014-Oct-17 23:32N 47°44' W 003°22'6 5.9
2014-Oct-17 22:33N 47°38' W 003°22'7 0.2
2014-Oct-16 04:08N 47°32' W 003°23'5 7.9
2014-Oct-16 03:33N 47°36' W 003°22'8 7.4
2014-Oct-16 02:31N 47°44' W 003°22'0 0.0
2014-Oct-16 01:31N 47°44' W 003°22'5 5.0
2014-Oct-16 00:33N 47°39' W 003°22'  

Dump ship's entire track history